Terminal Aerodrome Forecast
Issued by NWS Cleveland, OH

Home | Current Version | Previous Version | Graphics & Text | Print | Product List | Glossary On
Versions: 1 2 3 4 5 6 7 8 9 10 11 12 13 14 15 16 17 18 19 20 21
000
FTUS41 KCLE 220500
TAFERI
TAF
KERI 220529Z 2206/2306 19011KT P6SM SCT035
     FM221500 19015G25KT P6SM BKN050 OVC080
     FM221700 19017G28KT 5SM -RA BR BKN020 OVC050=

USA.gov is the U.S. government's official web portal to all federal, state and local government web resources and services.